sensor_id;sensor_type;location;lat;lon;timestamp;P1;durP1;ratioP1;P2;durP2;ratioP2
43114;SDS011;28727;50.068;14.452;2023-05-07T00:01:09;15.43;;;10.45;;
43114;SDS011;28727;50.068;14.452;2023-05-07T00:03:42;15.32;;;10.25;;
43114;SDS011;28727;50.068;14.452;2023-05-07T00:06:14;16.20;;;10.32;;
43114;SDS011;28727;50.068;14.452;2023-05-07T00:08:46;14.90;;;9.75;;
43114;SDS011;28727;50.068;14.452;2023-05-07T00:11:18;15.02;;;10.60;;
43114;SDS011;28727;50.068;14.452;2023-05-07T00:13:49;15.68;;;9.82;;
43114;SDS011;28727;50.068;14.452;2023-05-07T00:16:21;15.90;;;9.85;;
43114;SDS011;28727;50.068;14.452;2023-05-07T00:18:53;17.35;;;10.35;;
43114;SDS011;28727;50.068;14.452;2023-05-07T00:21:25;16.30;;;10.63;;
43114;SDS011;28727;50.068;14.452;2023-05-07T00:26:31;16.02;;;10.35;;
43114;SDS011;28727;50.068;14.452;2023-05-07T00:29:03;14.88;;;10.15;;
43114;SDS011;28727;50.068;14.452;2023-05-07T00:31:35;17.35;;;11.20;;
43114;SDS011;28727;50.068;14.452;2023-05-07T00:34:07;15.52;;;9.85;;
43114;SDS011;28727;50.068;14.452;2023-05-07T00:36:40;16.55;;;10.55;;
43114;SDS011;28727;50.068;14.452;2023-05-07T00:39:12;15.60;;;10.60;;
43114;SDS011;28727;50.068;14.452;2023-05-07T00:41:43;16.38;;;10.55;;
43114;SDS011;28727;50.068;14.452;2023-05-07T00:44:15;16.10;;;10.50;;
43114;SDS011;28727;50.068;14.452;2023-05-07T00:46:48;15.27;;;9.90;;
43114;SDS011;28727;50.068;14.452;2023-05-07T00:49:21;17.23;;;9.85;;
43114;SDS011;28727;50.068;14.452;2023-05-07T00:52:00;14.55;;;9.65;;
43114;SDS011;28727;50.068;14.452;2023-05-07T00:54:32;17.15;;;10.38;;
43114;SDS011;28727;50.068;14.452;2023-05-07T00:57:05;16.45;;;10.57;;
43114;SDS011;28727;50.068;14.452;2023-05-07T00:59:37;15.45;;;10.35;;
43114;SDS011;28727;50.068;14.452;2023-05-07T01:02:11;17.33;;;11.02;;
43114;SDS011;28727;50.068;14.452;2023-05-07T01:04:43;15.05;;;10.35;;
43114;SDS011;28727;50.068;14.452;2023-05-07T01:07:15;18.00;;;10.93;;
43114;SDS011;28727;50.068;14.452;2023-05-07T01:09:47;15.48;;;10.43;;
43114;SDS011;28727;50.068;14.452;2023-05-07T01:12:22;15.90;;;11.30;;
43114;SDS011;28727;50.068;14.452;2023-05-07T01:14:55;16.05;;;10.38;;
43114;SDS011;28727;50.068;14.452;2023-05-07T01:17:28;14.95;;;10.00;;
43114;SDS011;28727;50.068;14.452;2023-05-07T01:20:00;15.70;;;10.02;;
43114;SDS011;28727;50.068;14.452;2023-05-07T01:22:36;17.40;;;10.65;;
43114;SDS011;28727;50.068;14.452;2023-05-07T01:25:10;14.25;;;9.98;;
43114;SDS011;28727;50.068;14.452;2023-05-07T01:27:46;16.45;;;9.93;;
43114;SDS011;28727;50.068;14.452;2023-05-07T01:30:18;14.65;;;9.75;;
43114;SDS011;28727;50.068;14.452;2023-05-07T01:33:00;14.80;;;10.40;;
43114;SDS011;28727;50.068;14.452;2023-05-07T01:35:41;15.43;;;9.85;;
43114;SDS011;28727;50.068;14.452;2023-05-07T01:38:18;14.25;;;9.32;;
43114;SDS011;28727;50.068;14.452;2023-05-07T01:40:52;12.45;;;7.85;;
43114;SDS011;28727;50.068;14.452;2023-05-07T01:43:24;15.27;;;9.18;;
43114;SDS011;28727;50.068;14.452;2023-05-07T01:45:57;13.15;;;8.30;;
43114;SDS011;28727;50.068;14.452;2023-05-07T01:48:30;12.43;;;8.33;;
43114;SDS011;28727;50.068;14.452;2023-05-07T01:51:02;13.05;;;8.18;;
43114;SDS011;28727;50.068;14.452;2023-05-07T01:53:36;12.52;;;8.18;;
43114;SDS011;28727;50.068;14.452;2023-05-07T01:56:08;12.93;;;8.27;;
43114;SDS011;28727;50.068;14.452;2023-05-07T01:58:44;12.93;;;8.57;;
43114;SDS011;28727;50.068;14.452;2023-05-07T02:01:18;13.32;;;8.73;;
43114;SDS011;28727;50.068;14.452;2023-05-07T02:03:50;12.07;;;7.72;;
43114;SDS011;28727;50.068;14.452;2023-05-07T02:06:27;13.68;;;8.57;;
43114;SDS011;28727;50.068;14.452;2023-05-07T02:09:04;12.55;;;8.43;;
43114;SDS011;28727;50.068;14.452;2023-05-07T02:11:36;12.10;;;7.90;;
43114;SDS011;28727;50.068;14.452;2023-05-07T02:14:09;14.90;;;8.10;;
43114;SDS011;28727;50.068;14.452;2023-05-07T02:16:41;12.45;;;8.63;;
43114;SDS011;28727;50.068;14.452;2023-05-07T02:19:16;16.05;;;9.32;;
43114;SDS011;28727;50.068;14.452;2023-05-07T02:21:51;12.63;;;7.93;;
43114;SDS011;28727;50.068;14.452;2023-05-07T02:24:22;12.52;;;8.02;;
43114;SDS011;28727;50.068;14.452;2023-05-07T02:26:54;11.05;;;7.40;;
43114;SDS011;28727;50.068;14.452;2023-05-07T02:29:26;12.13;;;8.00;;
43114;SDS011;28727;50.068;14.452;2023-05-07T02:31:58;12.90;;;7.75;;
43114;SDS011;28727;50.068;14.452;2023-05-07T02:34:30;11.77;;;7.70;;
43114;SDS011;28727;50.068;14.452;2023-05-07T02:37:02;10.63;;;7.38;;
43114;SDS011;28727;50.068;14.452;2023-05-07T02:39:33;9.90;;;7.28;;
43114;SDS011;28727;50.068;14.452;2023-05-07T02:42:05;10.07;;;6.88;;
43114;SDS011;28727;50.068;14.452;2023-05-07T02:44:37;11.05;;;7.63;;
43114;SDS011;28727;50.068;14.452;2023-05-07T02:47:10;11.40;;;8.00;;
43114;SDS011;28727;50.068;14.452;2023-05-07T02:49:45;11.10;;;7.55;;
43114;SDS011;28727;50.068;14.452;2023-05-07T02:52:17;11.85;;;7.68;;
43114;SDS011;28727;50.068;14.452;2023-05-07T02:54:49;12.02;;;7.88;;
43114;SDS011;28727;50.068;14.452;2023-05-07T02:57:21;10.82;;;7.00;;
43114;SDS011;28727;50.068;14.452;2023-05-07T02:59:53;12.30;;;7.13;;
43114;SDS011;28727;50.068;14.452;2023-05-07T03:02:28;12.73;;;8.52;;
43114;SDS011;28727;50.068;14.452;2023-05-07T03:05:03;11.18;;;7.72;;
43114;SDS011;28727;50.068;14.452;2023-05-07T03:07:35;11.45;;;7.97;;
43114;SDS011;28727;50.068;14.452;2023-05-07T03:10:07;12.25;;;8.45;;
43114;SDS011;28727;50.068;14.452;2023-05-07T03:12:40;12.68;;;8.20;;
43114;SDS011;28727;50.068;14.452;2023-05-07T03:17:46;11.98;;;8.05;;
43114;SDS011;28727;50.068;14.452;2023-05-07T03:20:18;14.88;;;9.60;;
43114;SDS011;28727;50.068;14.452;2023-05-07T03:22:50;13.93;;;8.98;;
43114;SDS011;28727;50.068;14.452;2023-05-07T03:25:22;15.32;;;9.65;;
43114;SDS011;28727;50.068;14.452;2023-05-07T03:30:33;13.85;;;8.80;;
43114;SDS011;28727;50.068;14.452;2023-05-07T03:33:04;15.68;;;9.57;;
43114;SDS011;28727;50.068;14.452;2023-05-07T03:35:36;16.50;;;10.60;;
43114;SDS011;28727;50.068;14.452;2023-05-07T03:38:08;16.13;;;9.43;;
43114;SDS011;28727;50.068;14.452;2023-05-07T03:40:42;17.45;;;10.27;;
43114;SDS011;28727;50.068;14.452;2023-05-07T03:43:14;15.50;;;9.25;;
43114;SDS011;28727;50.068;14.452;2023-05-07T03:45:51;14.57;;;9.18;;
43114;SDS011;28727;50.068;14.452;2023-05-07T03:48:27;14.23;;;9.60;;
43114;SDS011;28727;50.068;14.452;2023-05-07T03:51:01;17.05;;;10.30;;
43114;SDS011;28727;50.068;14.452;2023-05-07T03:53:36;17.52;;;10.77;;
43114;SDS011;28727;50.068;14.452;2023-05-07T03:56:08;16.50;;;9.77;;
43114;SDS011;28727;50.068;14.452;2023-05-07T03:58:44;17.48;;;10.93;;
43114;SDS011;28727;50.068;14.452;2023-05-07T04:01:16;18.80;;;10.73;;
43114;SDS011;28727;50.068;14.452;2023-05-07T04:03:48;16.23;;;10.52;;
43114;SDS011;28727;50.068;14.452;2023-05-07T04:06:21;16.58;;;10.40;;
43114;SDS011;28727;50.068;14.452;2023-05-07T04:08:55;16.00;;;9.80;;
43114;SDS011;28727;50.068;14.452;2023-05-07T04:11:27;14.07;;;8.48;;
43114;SDS011;28727;50.068;14.452;2023-05-07T04:13:59;15.18;;;8.88;;
43114;SDS011;28727;50.068;14.452;2023-05-07T04:16:31;14.02;;;8.65;;
43114;SDS011;28727;50.068;14.452;2023-05-07T04:19:03;13.38;;;8.77;;
43114;SDS011;28727;50.068;14.452;2023-05-07T04:21:35;11.73;;;8.13;;
43114;SDS011;28727;50.068;14.452;2023-05-07T04:24:10;12.00;;;7.65;;
43114;SDS011;28727;50.068;14.452;2023-05-07T04:26:42;14.00;;;8.60;;
43114;SDS011;28727;50.068;14.452;2023-05-07T04:29:18;13.50;;;8.25;;
43114;SDS011;28727;50.068;14.452;2023-05-07T04:31:50;10.80;;;7.40;;
43114;SDS011;28727;50.068;14.452;2023-05-07T04:34:22;13.68;;;8.40;;
43114;SDS011;28727;50.068;14.452;2023-05-07T04:36:57;10.55;;;7.35;;
43114;SDS011;28727;50.068;14.452;2023-05-07T04:39:30;11.90;;;7.55;;
43114;SDS011;28727;50.068;14.452;2023-05-07T04:42:02;11.38;;;7.63;;
43114;SDS011;28727;50.068;14.452;2023-05-07T04:44:35;13.10;;;8.52;;
43114;SDS011;28727;50.068;14.452;2023-05-07T04:47:09;13.45;;;8.48;;
43114;SDS011;28727;50.068;14.452;2023-05-07T04:49:41;12.27;;;7.82;;
43114;SDS011;28727;50.068;14.452;2023-05-07T04:52:14;12.35;;;8.07;;
43114;SDS011;28727;50.068;14.452;2023-05-07T04:54:49;12.82;;;8.50;;
43114;SDS011;28727;50.068;14.452;2023-05-07T04:57:22;13.23;;;8.18;;
43114;SDS011;28727;50.068;14.452;2023-05-07T04:59:54;11.30;;;8.27;;
43114;SDS011;28727;50.068;14.452;2023-05-07T05:02:26;12.27;;;8.27;;
43114;SDS011;28727;50.068;14.452;2023-05-07T05:04:58;15.20;;;8.27;;
43114;SDS011;28727;50.068;14.452;2023-05-07T05:07:30;12.90;;;8.32;;
43114;SDS011;28727;50.068;14.452;2023-05-07T05:10:03;13.65;;;7.88;;
43114;SDS011;28727;50.068;14.452;2023-05-07T05:12:39;15.95;;;8.30;;
43114;SDS011;28727;50.068;14.452;2023-05-07T05:15:12;12.07;;;8.15;;
43114;SDS011;28727;50.068;14.452;2023-05-07T05:17:44;12.85;;;8.43;;
43114;SDS011;28727;50.068;14.452;2023-05-07T05:20:17;14.25;;;9.00;;
43114;SDS011;28727;50.068;14.452;2023-05-07T05:22:51;12.90;;;8.52;;
43114;SDS011;28727;50.068;14.452;2023-05-07T05:25:23;11.18;;;7.45;;
43114;SDS011;28727;50.068;14.452;2023-05-07T05:27:55;11.55;;;7.70;;
43114;SDS011;28727;50.068;14.452;2023-05-07T05:30:28;9.95;;;7.07;;
43114;SDS011;28727;50.068;14.452;2023-05-07T05:33:03;11.80;;;7.70;;
43114;SDS011;28727;50.068;14.452;2023-05-07T05:35:35;11.10;;;6.70;;
43114;SDS011;28727;50.068;14.452;2023-05-07T05:38:09;10.15;;;6.63;;
43114;SDS011;28727;50.068;14.452;2023-05-07T05:40:42;10.05;;;6.60;;
43114;SDS011;28727;50.068;14.452;2023-05-07T05:43:14;11.20;;;7.25;;
43114;SDS011;28727;50.068;14.452;2023-05-07T05:48:20;10.52;;;6.78;;
43114;SDS011;28727;50.068;14.452;2023-05-07T05:50:53;10.07;;;6.50;;
43114;SDS011;28727;50.068;14.452;2023-05-07T05:53:25;11.48;;;6.38;;
43114;SDS011;28727;50.068;14.452;2023-05-07T05:55:58;10.55;;;6.10;;
43114;SDS011;28727;50.068;14.452;2023-05-07T05:58:30;9.52;;;6.10;;
43114;SDS011;28727;50.068;14.452;2023-05-07T06:01:05;10.05;;;6.32;;
43114;SDS011;28727;50.068;14.452;2023-05-07T06:03:40;9.27;;;5.82;;
43114;SDS011;28727;50.068;14.452;2023-05-07T06:06:17;9.50;;;6.18;;
43114;SDS011;28727;50.068;14.452;2023-05-07T06:08:49;9.35;;;6.22;;
43114;SDS011;28727;50.068;14.452;2023-05-07T06:11:26;9.02;;;6.32;;
43114;SDS011;28727;50.068;14.452;2023-05-07T06:13:58;10.52;;;6.95;;
43114;SDS011;28727;50.068;14.452;2023-05-07T06:16:32;10.02;;;6.47;;
43114;SDS011;28727;50.068;14.452;2023-05-07T06:19:04;10.82;;;6.43;;
43114;SDS011;28727;50.068;14.452;2023-05-07T06:21:36;9.43;;;5.65;;
43114;SDS011;28727;50.068;14.452;2023-05-07T06:24:08;15.32;;;6.90;;
43114;SDS011;28727;50.068;14.452;2023-05-07T06:26:42;8.60;;;5.47;;
43114;SDS011;28727;50.068;14.452;2023-05-07T06:29:16;9.00;;;5.25;;
43114;SDS011;28727;50.068;14.452;2023-05-07T06:31:49;8.20;;;5.70;;
43114;SDS011;28727;50.068;14.452;2023-05-07T06:34:21;10.68;;;7.03;;
43114;SDS011;28727;50.068;14.452;2023-05-07T06:36:53;8.70;;;6.05;;
43114;SDS011;28727;50.068;14.452;2023-05-07T06:39:36;9.82;;;6.07;;
43114;SDS011;28727;50.068;14.452;2023-05-07T06:42:08;8.10;;;5.65;;
43114;SDS011;28727;50.068;14.452;2023-05-07T06:44:46;9.32;;;5.63;;
43114;SDS011;28727;50.068;14.452;2023-05-07T06:47:20;7.68;;;5.38;;
43114;SDS011;28727;50.068;14.452;2023-05-07T06:49:55;7.03;;;5.10;;
43114;SDS011;28727;50.068;14.452;2023-05-07T06:52:34;7.65;;;5.53;;
43114;SDS011;28727;50.068;14.452;2023-05-07T06:55:09;7.38;;;5.00;;
43114;SDS011;28727;50.068;14.452;2023-05-07T06:57:43;7.75;;;5.53;;
43114;SDS011;28727;50.068;14.452;2023-05-07T07:00:15;6.60;;;4.90;;
43114;SDS011;28727;50.068;14.452;2023-05-07T07:02:53;7.63;;;5.47;;
43114;SDS011;28727;50.068;14.452;2023-05-07T07:05:29;8.32;;;5.35;;
43114;SDS011;28727;50.068;14.452;2023-05-07T07:08:02;11.10;;;4.70;;
43114;SDS011;28727;50.068;14.452;2023-05-07T07:10:34;10.18;;;5.35;;
43114;SDS011;28727;50.068;14.452;2023-05-07T07:13:08;11.93;;;5.10;;
43114;SDS011;28727;50.068;14.452;2023-05-07T07:15:40;8.95;;;5.53;;
43114;SDS011;28727;50.068;14.452;2023-05-07T07:18:13;7.60;;;5.00;;
43114;SDS011;28727;50.068;14.452;2023-05-07T07:20:45;6.88;;;5.40;;
43114;SDS011;28727;50.068;14.452;2023-05-07T07:23:17;6.68;;;4.97;;
43114;SDS011;28727;50.068;14.452;2023-05-07T07:25:49;5.47;;;4.43;;
43114;SDS011;28727;50.068;14.452;2023-05-07T07:28:21;6.72;;;5.03;;
43114;SDS011;28727;50.068;14.452;2023-05-07T07:30:53;6.93;;;4.50;;
43114;SDS011;28727;50.068;14.452;2023-05-07T07:33:26;6.32;;;4.60;;
43114;SDS011;28727;50.068;14.452;2023-05-07T07:35:58;8.52;;;5.88;;
43114;SDS011;28727;50.068;14.452;2023-05-07T07:38:30;6.93;;;5.20;;
43114;SDS011;28727;50.068;14.452;2023-05-07T07:41:02;5.82;;;4.80;;
43114;SDS011;28727;50.068;14.452;2023-05-07T07:43:34;6.70;;;5.30;;
43114;SDS011;28727;50.068;14.452;2023-05-07T07:46:07;6.47;;;4.68;;
43114;SDS011;28727;50.068;14.452;2023-05-07T07:48:39;8.60;;;4.88;;
43114;SDS011;28727;50.068;14.452;2023-05-07T07:51:11;6.75;;;4.50;;
43114;SDS011;28727;50.068;14.452;2023-05-07T07:53:44;5.82;;;4.07;;
43114;SDS011;28727;50.068;14.452;2023-05-07T07:56:16;5.85;;;4.38;;
43114;SDS011;28727;50.068;14.452;2023-05-07T07:58:48;5.95;;;4.50;;
43114;SDS011;28727;50.068;14.452;2023-05-07T08:01:21;5.80;;;4.68;;
43114;SDS011;28727;50.068;14.452;2023-05-07T08:03:53;5.85;;;4.43;;
43114;SDS011;28727;50.068;14.452;2023-05-07T08:06:26;6.18;;;4.63;;
43114;SDS011;28727;50.068;14.452;2023-05-07T08:08:58;7.18;;;5.30;;
43114;SDS011;28727;50.068;14.452;2023-05-07T08:11:31;7.15;;;5.40;;
43114;SDS011;28727;50.068;14.452;2023-05-07T08:14:03;7.15;;;5.05;;
43114;SDS011;28727;50.068;14.452;2023-05-07T08:16:35;8.07;;;5.50;;
43114;SDS011;28727;50.068;14.452;2023-05-07T08:19:07;6.93;;;5.30;;
43114;SDS011;28727;50.068;14.452;2023-05-07T08:21:39;7.82;;;5.07;;
43114;SDS011;28727;50.068;14.452;2023-05-07T08:24:14;9.27;;;5.90;;
43114;SDS011;28727;50.068;14.452;2023-05-07T08:26:46;8.52;;;6.13;;
43114;SDS011;28727;50.068;14.452;2023-05-07T08:29:18;7.13;;;5.03;;
43114;SDS011;28727;50.068;14.452;2023-05-07T08:31:51;8.75;;;5.43;;
43114;SDS011;28727;50.068;14.452;2023-05-07T08:34:23;7.90;;;5.35;;
43114;SDS011;28727;50.068;14.452;2023-05-07T08:36:56;8.75;;;5.15;;
43114;SDS011;28727;50.068;14.452;2023-05-07T08:39:29;7.75;;;5.53;;
43114;SDS011;28727;50.068;14.452;2023-05-07T08:42:01;8.02;;;5.78;;
43114;SDS011;28727;50.068;14.452;2023-05-07T08:44:38;7.72;;;4.82;;
43114;SDS011;28727;50.068;14.452;2023-05-07T08:47:11;6.82;;;4.68;;
43114;SDS011;28727;50.068;14.452;2023-05-07T08:49:44;6.63;;;5.20;;
43114;SDS011;28727;50.068;14.452;2023-05-07T08:52:17;9.55;;;4.85;;
43114;SDS011;28727;50.068;14.452;2023-05-07T08:54:51;5.90;;;4.45;;
43114;SDS011;28727;50.068;14.452;2023-05-07T08:57:24;5.63;;;4.00;;
43114;SDS011;28727;50.068;14.452;2023-05-07T08:59:57;5.38;;;3.85;;
43114;SDS011;28727;50.068;14.452;2023-05-07T09:02:29;6.88;;;3.85;;
43114;SDS011;28727;50.068;14.452;2023-05-07T09:05:03;13.23;;;3.83;;
43114;SDS011;28727;50.068;14.452;2023-05-07T09:07:35;7.50;;;4.00;;
43114;SDS011;28727;50.068;14.452;2023-05-07T09:10:09;5.95;;;3.95;;
43114;SDS011;28727;50.068;14.452;2023-05-07T09:12:43;5.78;;;4.18;;
43114;SDS011;28727;50.068;14.452;2023-05-07T09:15:19;6.15;;;4.28;;
43114;SDS011;28727;50.068;14.452;2023-05-07T09:17:52;6.10;;;4.18;;
43114;SDS011;28727;50.068;14.452;2023-05-07T09:20:24;7.30;;;4.57;;
43114;SDS011;28727;50.068;14.452;2023-05-07T09:22:56;6.60;;;3.88;;
43114;SDS011;28727;50.068;14.452;2023-05-07T09:25:30;5.57;;;3.85;;
43114;SDS011;28727;50.068;14.452;2023-05-07T09:28:08;5.50;;;3.75;;
43114;SDS011;28727;50.068;14.452;2023-05-07T09:30:41;6.05;;;4.35;;
43114;SDS011;28727;50.068;14.452;2023-05-07T09:33:15;6.05;;;4.18;;
43114;SDS011;28727;50.068;14.452;2023-05-07T09:35:51;6.43;;;4.63;;
43114;SDS011;28727;50.068;14.452;2023-05-07T09:38:24;5.35;;;4.00;;
43114;SDS011;28727;50.068;14.452;2023-05-07T09:43:40;6.13;;;4.45;;
43114;SDS011;28727;50.068;14.452;2023-05-07T09:46:14;7.90;;;4.50;;
43114;SDS011;28727;50.068;14.452;2023-05-07T09:48:54;10.98;;;4.63;;
43114;SDS011;28727;50.068;14.452;2023-05-07T09:51:45;6.55;;;4.43;;
43114;SDS011;28727;50.068;14.452;2023-05-07T09:54:26;7.10;;;4.47;;
43114;SDS011;28727;50.068;14.452;2023-05-07T09:57:02;6.45;;;4.43;;
43114;SDS011;28727;50.068;14.452;2023-05-07T09:59:35;5.18;;;3.88;;
43114;SDS011;28727;50.068;14.452;2023-05-07T10:02:12;6.32;;;4.20;;
43114;SDS011;28727;50.068;14.452;2023-05-07T10:04:51;6.95;;;4.47;;
43114;SDS011;28727;50.068;14.452;2023-05-07T10:07:29;6.28;;;4.45;;
43114;SDS011;28727;50.068;14.452;2023-05-07T10:10:08;5.80;;;4.30;;
43114;SDS011;28727;50.068;14.452;2023-05-07T10:12:44;6.50;;;4.68;;
43114;SDS011;28727;50.068;14.452;2023-05-07T10:15:23;5.55;;;4.10;;
43114;SDS011;28727;50.068;14.452;2023-05-07T10:17:59;5.43;;;3.58;;
43114;SDS011;28727;50.068;14.452;2023-05-07T10:20:33;6.00;;;4.05;;
43114;SDS011;28727;50.068;14.452;2023-05-07T10:23:09;6.50;;;3.95;;
43114;SDS011;28727;50.068;14.452;2023-05-07T10:25:48;6.20;;;4.38;;
43114;SDS011;28727;50.068;14.452;2023-05-07T10:28:25;7.00;;;3.90;;
43114;SDS011;28727;50.068;14.452;2023-05-07T10:31:13;6.13;;;4.53;;
43114;SDS011;28727;50.068;14.452;2023-05-07T10:33:58;4.80;;;4.20;;
43114;SDS011;28727;50.068;14.452;2023-05-07T10:36:33;5.50;;;3.92;;
43114;SDS011;28727;50.068;14.452;2023-05-07T10:39:09;5.25;;;3.80;;
43114;SDS011;28727;50.068;14.452;2023-05-07T10:41:43;5.50;;;3.90;;
43114;SDS011;28727;50.068;14.452;2023-05-07T10:47:22;5.32;;;3.60;;
43114;SDS011;28727;50.068;14.452;2023-05-07T10:52:39;6.97;;;4.45;;
43114;SDS011;28727;50.068;14.452;2023-05-07T11:04:39;6.05;;;4.50;;
43114;SDS011;28727;50.068;14.452;2023-05-07T11:07:29;5.45;;;4.20;;
43114;SDS011;28727;50.068;14.452;2023-05-07T11:10:09;6.82;;;4.45;;
43114;SDS011;28727;50.068;14.452;2023-05-07T11:13:01;8.20;;;4.93;;
43114;SDS011;28727;50.068;14.452;2023-05-07T11:15:45;6.03;;;4.00;;
43114;SDS011;28727;50.068;14.452;2023-05-07T11:18:45;6.68;;;4.28;;
43114;SDS011;28727;50.068;14.452;2023-05-07T11:21:40;5.70;;;4.10;;
43114;SDS011;28727;50.068;14.452;2023-05-07T11:24:46;6.85;;;4.75;;
43114;SDS011;28727;50.068;14.452;2023-05-07T11:27:22;7.28;;;5.10;;
43114;SDS011;28727;50.068;14.452;2023-05-07T11:29:56;7.10;;;4.78;;
43114;SDS011;28727;50.068;14.452;2023-05-07T11:32:29;6.38;;;4.40;;
43114;SDS011;28727;50.068;14.452;2023-05-07T11:35:03;6.28;;;4.47;;
43114;SDS011;28727;50.068;14.452;2023-05-07T11:37:35;6.05;;;4.43;;
43114;SDS011;28727;50.068;14.452;2023-05-07T11:40:08;6.72;;;4.82;;
43114;SDS011;28727;50.068;14.452;2023-05-07T11:42:42;9.60;;;6.50;;
43114;SDS011;28727;50.068;14.452;2023-05-07T11:45:19;6.78;;;5.20;;
43114;SDS011;28727;50.068;14.452;2023-05-07T11:48:03;8.13;;;5.70;;
43114;SDS011;28727;50.068;14.452;2023-05-07T11:50:37;7.30;;;5.30;;
43114;SDS011;28727;50.068;14.452;2023-05-07T11:53:25;8.52;;;5.78;;
43114;SDS011;28727;50.068;14.452;2023-05-07T11:56:05;6.75;;;5.40;;
43114;SDS011;28727;50.068;14.452;2023-05-07T11:58:41;11.07;;;5.40;;
43114;SDS011;28727;50.068;14.452;2023-05-07T12:01:14;8.18;;;5.60;;
43114;SDS011;28727;50.068;14.452;2023-05-07T12:03:47;8.57;;;5.47;;
43114;SDS011;28727;50.068;14.452;2023-05-07T12:06:19;7.13;;;4.90;;
43114;SDS011;28727;50.068;14.452;2023-05-07T12:08:52;7.95;;;4.80;;
43114;SDS011;28727;50.068;14.452;2023-05-07T12:11:25;6.45;;;4.65;;
43114;SDS011;28727;50.068;14.452;2023-05-07T12:13:57;6.38;;;4.50;;
43114;SDS011;28727;50.068;14.452;2023-05-07T12:16:30;7.82;;;4.85;;
43114;SDS011;28727;50.068;14.452;2023-05-07T12:19:04;9.35;;;4.95;;
43114;SDS011;28727;50.068;14.452;2023-05-07T12:21:38;7.23;;;4.43;;
43114;SDS011;28727;50.068;14.452;2023-05-07T12:24:11;10.02;;;4.13;;
43114;SDS011;28727;50.068;14.452;2023-05-07T12:26:44;6.05;;;4.05;;
43114;SDS011;28727;50.068;14.452;2023-05-07T12:29:16;5.95;;;4.18;;
43114;SDS011;28727;50.068;14.452;2023-05-07T12:31:49;4.60;;;3.63;;
43114;SDS011;28727;50.068;14.452;2023-05-07T12:34:21;4.65;;;3.63;;
43114;SDS011;28727;50.068;14.452;2023-05-07T12:36:54;4.90;;;3.88;;
43114;SDS011;28727;50.068;14.452;2023-05-07T12:39:26;5.00;;;4.10;;
43114;SDS011;28727;50.068;14.452;2023-05-07T12:41:59;4.90;;;3.85;;
43114;SDS011;28727;50.068;14.452;2023-05-07T12:44:32;5.75;;;4.22;;
43114;SDS011;28727;50.068;14.452;2023-05-07T12:47:05;4.45;;;3.58;;
43114;SDS011;28727;50.068;14.452;2023-05-07T12:49:37;4.55;;;3.67;;
43114;SDS011;28727;50.068;14.452;2023-05-07T12:52:10;4.88;;;4.00;;
43114;SDS011;28727;50.068;14.452;2023-05-07T12:54:43;4.75;;;3.70;;
43114;SDS011;28727;50.068;14.452;2023-05-07T12:57:15;4.78;;;3.53;;
43114;SDS011;28727;50.068;14.452;2023-05-07T12:59:52;4.30;;;3.65;;
43114;SDS011;28727;50.068;14.452;2023-05-07T13:02:33;6.72;;;3.67;;
43114;SDS011;28727;50.068;14.452;2023-05-07T13:05:06;5.13;;;4.10;;
43114;SDS011;28727;50.068;14.452;2023-05-07T13:07:39;4.60;;;3.67;;
43114;SDS011;28727;50.068;14.452;2023-05-07T13:10:12;5.47;;;4.30;;
43114;SDS011;28727;50.068;14.452;2023-05-07T13:12:44;5.88;;;3.90;;
43114;SDS011;28727;50.068;14.452;2023-05-07T13:15:18;9.02;;;5.18;;
43114;SDS011;28727;50.068;14.452;2023-05-07T13:17:50;6.90;;;4.63;;
43114;SDS011;28727;50.068;14.452;2023-05-07T13:20:22;6.72;;;4.35;;
43114;SDS011;28727;50.068;14.452;2023-05-07T13:22:54;5.60;;;4.50;;
43114;SDS011;28727;50.068;14.452;2023-05-07T13:25:26;5.45;;;4.20;;
43114;SDS011;28727;50.068;14.452;2023-05-07T13:28:01;7.40;;;4.25;;
43114;SDS011;28727;50.068;14.452;2023-05-07T13:30:41;4.43;;;3.40;;
43114;SDS011;28727;50.068;14.452;2023-05-07T13:33:14;4.75;;;3.95;;
43114;SDS011;28727;50.068;14.452;2023-05-07T13:35:47;5.53;;;4.10;;
43114;SDS011;28727;50.068;14.452;2023-05-07T13:38:19;6.35;;;3.90;;
43114;SDS011;28727;50.068;14.452;2023-05-07T13:40:53;4.68;;;3.72;;
43114;SDS011;28727;50.068;14.452;2023-05-07T13:43:25;7.07;;;4.15;;
43114;SDS011;28727;50.068;14.452;2023-05-07T13:45:57;4.80;;;4.00;;
43114;SDS011;28727;50.068;14.452;2023-05-07T13:48:29;5.35;;;3.70;;
43114;SDS011;28727;50.068;14.452;2023-05-07T13:51:02;4.80;;;3.72;;
43114;SDS011;28727;50.068;14.452;2023-05-07T13:53:34;4.45;;;3.67;;
43114;SDS011;28727;50.068;14.452;2023-05-07T13:56:06;5.80;;;4.00;;
43114;SDS011;28727;50.068;14.452;2023-05-07T13:58:38;4.65;;;3.83;;
43114;SDS011;28727;50.068;14.452;2023-05-07T14:01:24;4.13;;;3.45;;
43114;SDS011;28727;50.068;14.452;2023-05-07T14:03:56;4.72;;;3.88;;
43114;SDS011;28727;50.068;14.452;2023-05-07T14:06:37;7.07;;;4.10;;
43114;SDS011;28727;50.068;14.452;2023-05-07T14:09:09;5.13;;;3.80;;
43114;SDS011;28727;50.068;14.452;2023-05-07T14:11:44;6.32;;;4.50;;
43114;SDS011;28727;50.068;14.452;2023-05-07T14:14:22;5.50;;;3.95;;
43114;SDS011;28727;50.068;14.452;2023-05-07T14:16:54;6.20;;;4.20;;
43114;SDS011;28727;50.068;14.452;2023-05-07T14:19:26;7.05;;;4.03;;
43114;SDS011;28727;50.068;14.452;2023-05-07T14:21:58;5.15;;;3.58;;
43114;SDS011;28727;50.068;14.452;2023-05-07T14:24:30;5.15;;;4.13;;
43114;SDS011;28727;50.068;14.452;2023-05-07T14:27:09;5.97;;;4.70;;
43114;SDS011;28727;50.068;14.452;2023-05-07T14:29:43;6.65;;;4.95;;
43114;SDS011;28727;50.068;14.452;2023-05-07T14:32:17;6.75;;;5.30;;
43114;SDS011;28727;50.068;14.452;2023-05-07T14:34:49;6.80;;;4.88;;
43114;SDS011;28727;50.068;14.452;2023-05-07T14:37:21;5.93;;;5.18;;
43114;SDS011;28727;50.068;14.452;2023-05-07T14:39:56;7.45;;;5.55;;
43114;SDS011;28727;50.068;14.452;2023-05-07T14:42:28;7.40;;;5.50;;
43114;SDS011;28727;50.068;14.452;2023-05-07T14:45:01;7.82;;;5.47;;
43114;SDS011;28727;50.068;14.452;2023-05-07T14:47:36;6.40;;;4.80;;
43114;SDS011;28727;50.068;14.452;2023-05-07T14:50:08;5.18;;;4.40;;
43114;SDS011;28727;50.068;14.452;2023-05-07T14:52:40;6.85;;;4.82;;
43114;SDS011;28727;50.068;14.452;2023-05-07T14:55:12;4.80;;;4.30;;
43114;SDS011;28727;50.068;14.452;2023-05-07T14:57:44;5.38;;;4.45;;
43114;SDS011;28727;50.068;14.452;2023-05-07T15:00:16;6.00;;;4.60;;
43114;SDS011;28727;50.068;14.452;2023-05-07T15:02:48;11.23;;;4.82;;
43114;SDS011;28727;50.068;14.452;2023-05-07T15:05:20;4.70;;;4.20;;
43114;SDS011;28727;50.068;14.452;2023-05-07T15:07:52;5.00;;;4.35;;
43114;SDS011;28727;50.068;14.452;2023-05-07T15:10:28;4.95;;;3.67;;
43114;SDS011;28727;50.068;14.452;2023-05-07T15:13:00;4.45;;;3.33;;
43114;SDS011;28727;50.068;14.452;2023-05-07T15:15:32;3.92;;;3.15;;
43114;SDS011;28727;50.068;14.452;2023-05-07T15:18:04;3.70;;;3.00;;
43114;SDS011;28727;50.068;14.452;2023-05-07T15:20:36;5.75;;;3.03;;
43114;SDS011;28727;50.068;14.452;2023-05-07T15:23:08;3.90;;;2.95;;
43114;SDS011;28727;50.068;14.452;2023-05-07T15:25:47;3.97;;;2.85;;
43114;SDS011;28727;50.068;14.452;2023-05-07T15:28:23;4.40;;;3.10;;
43114;SDS011;28727;50.068;14.452;2023-05-07T15:30:59;4.22;;;3.20;;
43114;SDS011;28727;50.068;14.452;2023-05-07T15:33:31;4.05;;;3.15;;
43114;SDS011;28727;50.068;14.452;2023-05-07T15:36:03;4.25;;;2.95;;